Time;durP1;ratioP1;P1;durP2;ratioP2;P2;SDS_P1;SDS_P2;PMS_P1;PMS_P2;Temp;Humidity;BMP_temperature;BMP_pressure;BME280_temperature;BME280_humidity;BME280_pressure;Samples;Min_cycle;Max_cycle;Signal;HPM_P1;HPM_P2
2023/06/26 00:01:11;;;;;;;10.63;7.97;;;15.30;99.90;;;;;;4972971;28;20214;-75
2023/06/26 00:03:39;;;;;;;10.30;8.27;;;15.20;99.90;;;;;;4972707;28;20253;-73
2023/06/26 00:06:07;;;;;;;9.20;8.17;;;15.20;99.90;;;;;;4965636;28;20701;-74
2023/06/26 00:08:35;;;;;;;8.87;7.90;;;15.20;99.90;;;;;;4936608;29;20303;-76
2023/06/26 00:11:03;;;;;;;9.17;7.83;;;15.20;99.90;;;;;;4934277;29;20326;-75
2023/06/26 00:13:32;;;;;;;8.97;8.07;;;15.10;99.90;;;;;;4952264;29;20286;-76
2023/06/26 00:16:03;;;;;;;9.17;8.27;;;15.10;99.90;;;;;;4942416;28;20216;-74
2023/06/26 00:18:31;;;;;;;9.33;8.07;;;15.10;99.90;;;;;;4938165;29;20281;-75
2023/06/26 00:20:59;;;;;;;9.50;8.50;;;15.10;99.90;;;;;;4938287;29;20350;-75
2023/06/26 00:23:28;;;;;;;9.97;8.63;;;15.00;99.90;;;;;;4937564;29;20282;-75
2023/06/26 00:25:56;;;;;;;9.90;8.33;;;15.10;99.90;;;;;;4943104;29;20240;-76
2023/06/26 00:28:24;;;;;;;9.77;8.83;;;15.10;99.90;;;;;;4937507;29;20247;-75
2023/06/26 00:30:52;;;;;;;9.30;8.17;;;15.00;99.90;;;;;;4937726;29;20329;-76
2023/06/26 00:33:22;;;;;;;9.47;8.47;;;15.00;99.90;;;;;;4937612;29;20229;-76
2023/06/26 00:35:50;;;;;;;10.07;8.70;;;15.10;99.90;;;;;;4938107;29;20239;-77
2023/06/26 00:38:18;;;;;;;11.90;8.87;;;15.10;99.90;;;;;;4951537;29;20258;-75
2023/06/26 00:40:46;;;;;;;10.83;8.77;;;15.10;99.90;;;;;;4956969;28;20262;-76
2023/06/26 00:43:15;;;;;;;13.07;9.33;;;15.20;99.90;;;;;;4948101;28;20283;-77
2023/06/26 00:45:43;;;;;;;9.53;8.53;;;15.20;99.90;;;;;;4937526;29;20216;-75
2023/06/26 00:48:12;;;;;;;9.77;8.77;;;15.20;99.90;;;;;;4937809;29;20216;-74
2023/06/26 00:50:43;;;;;;;9.80;8.80;;;15.20;99.90;;;;;;4936966;29;20702;-74
2023/06/26 00:53:12;;;;;;;11.47;8.60;;;15.10;99.90;;;;;;4936983;29;20216;-74
2023/06/26 00:55:40;;;;;;;9.57;8.57;;;15.00;99.90;;;;;;4937407;29;20216;-75
2023/06/26 00:58:08;;;;;;;9.33;8.43;;;14.90;99.90;;;;;;4952871;28;20235;-76
2023/06/26 01:00:36;;;;;;;9.87;8.20;;;14.90;99.90;;;;;;4967415;28;20212;-75
2023/06/26 01:03:05;;;;;;;10.17;9.07;;;14.80;99.90;;;;;;4957411;29;20239;-75
2023/06/26 01:05:34;;;;;;;9.90;8.90;;;14.80;99.90;;;;;;4956234;29;20239;-75
2023/06/26 01:08:04;;;;;;;9.37;8.47;;;14.70;99.90;;;;;;4956248;29;20215;-74
2023/06/26 01:10:32;;;;;;;9.63;8.63;;;14.70;99.90;;;;;;4944457;29;20239;-75
2023/06/26 01:13:00;;;;;;;9.57;8.33;;;14.60;99.90;;;;;;4936705;29;20231;-75
2023/06/26 01:15:28;;;;;;;9.20;8.30;;;14.60;99.90;;;;;;4936614;28;20223;-74
2023/06/26 01:18:01;;;;;;;9.60;8.30;;;14.60;99.90;;;;;;4936957;29;20216;-74
2023/06/26 01:20:31;;;;;;;9.73;8.73;;;14.60;99.90;;;;;;4936631;29;20208;-75
2023/06/26 01:23:08;;;;;;;9.50;8.20;;;14.50;99.90;;;;;;4936173;29;20758;-74
2023/06/26 01:25:44;;;;;;;10.20;9.10;;;14.50;99.90;;;;;;4936638;29;20299;-74
2023/06/26 01:28:16;;;;;;;10.47;8.40;;;14.50;99.90;;;;;;4934145;29;20247;-75
2023/06/26 01:30:46;;;;;;;9.80;8.80;;;14.50;99.90;;;;;;4936417;29;20220;-74
2023/06/26 01:33:15;;;;;;;9.67;8.70;;;14.50;99.90;;;;;;4936094;29;20220;-75
2023/06/26 01:35:44;;;;;;;12.67;9.30;;;14.30;99.90;;;;;;4936204;29;20212;-74
2023/06/26 01:38:16;;;;;;;11.57;9.53;;;14.40;99.90;;;;;;4936535;29;20236;-74
2023/06/26 01:40:45;;;;;;;11.17;9.23;;;14.30;99.90;;;;;;4936153;29;20670;-75
2023/06/26 01:43:22;;;;;;;9.90;8.90;;;14.30;99.90;;;;;;4935392;29;20608;-75
2023/06/26 01:45:55;;;;;;;10.83;9.73;;;14.20;99.90;;;;;;4936306;29;20212;-75
2023/06/26 01:48:27;;;;;;;10.87;9.17;;;14.20;99.90;;;;;;4936422;29;20193;-74
2023/06/26 01:50:59;;;;;;;10.80;9.20;;;14.10;99.90;;;;;;4936085;29;20456;-74
2023/06/26 01:53:33;;;;;;;11.60;9.50;;;14.10;99.90;;;;;;4935827;29;20220;-74
2023/06/26 01:56:07;;;;;;;11.83;9.13;;;14.10;99.90;;;;;;4939696;28;20721;-74
2023/06/26 01:58:40;;;;;;;10.13;9.13;;;14.10;99.90;;;;;;4974065;28;20276;-75
2023/06/26 02:01:08;;;;;;;10.50;8.83;;;14.10;99.90;;;;;;4944505;28;20541;-74
2023/06/26 02:03:37;;;;;;;11.47;9.07;;;14.10;99.90;;;;;;4935593;29;20228;-74
2023/06/26 02:06:05;;;;;;;10.03;9.03;;;14.20;99.90;;;;;;4936120;29;20227;-74
2023/06/26 02:08:33;;;;;;;13.10;9.57;;;14.10;99.90;;;;;;4935906;29;21015;-74
2023/06/26 02:11:01;;;;;;;9.53;8.53;;;14.10;99.90;;;;;;4949218;28;20227;-74
2023/06/26 02:13:29;;;;;;;12.37;9.73;;;14.10;99.90;;;;;;4954725;29;20211;-74
2023/06/26 02:15:59;;;;;;;10.57;9.03;;;14.10;99.90;;;;;;4955101;28;20207;-74
2023/06/26 02:18:27;;;;;;;10.23;8.97;;;14.10;99.90;;;;;;4941196;29;20213;-74
2023/06/26 02:20:55;;;;;;;10.47;9.37;;;14.00;99.90;;;;;;4935563;29;20212;-75
2023/06/26 02:23:23;;;;;;;10.93;9.70;;;14.00;99.90;;;;;;4939627;29;20228;-74
2023/06/26 02:25:51;;;;;;;10.40;9.30;;;14.00;99.90;;;;;;4951473;28;20770;-74
2023/06/26 02:28:20;;;;;;;11.47;9.90;;;13.90;99.90;;;;;;4935351;29;20311;-74
2023/06/26 02:30:48;;;;;;;11.30;9.47;;;13.90;99.90;;;;;;4935713;29;20216;-74
2023/06/26 02:33:17;;;;;;;10.87;9.20;;;13.90;99.90;;;;;;4934999;29;20250;-75
2023/06/26 02:35:46;;;;;;;10.50;9.40;;;13.80;99.90;;;;;;4935401;29;20224;-75
2023/06/26 02:38:14;;;;;;;11.63;9.80;;;13.70;99.90;;;;;;4936807;29;20263;-75
2023/06/26 02:40:42;;;;;;;10.97;9.80;;;13.70;99.90;;;;;;4936554;29;20287;-75
2023/06/26 02:43:10;;;;;;;10.57;9.43;;;13.70;99.90;;;;;;4934995;29;20263;-76
2023/06/26 02:45:38;;;;;;;12.23;10.37;;;13.70;99.90;;;;;;4944157;29;20232;-75
2023/06/26 02:48:07;;;;;;;12.83;9.63;;;13.70;99.90;;;;;;4938842;29;20216;-74
2023/06/26 02:50:36;;;;;;;11.00;9.80;;;13.60;99.90;;;;;;4936214;29;20271;-76
2023/06/26 02:53:05;;;;;;;11.37;9.83;;;13.60;99.90;;;;;;4936597;29;20220;-77
2023/06/26 02:55:34;;;;;;;10.50;9.40;;;13.60;99.90;;;;;;4954384;28;20613;-78
2023/06/26 02:58:02;;;;;;;11.17;9.70;;;13.60;99.90;;;;;;4950791;29;20279;-75
2023/06/26 03:00:30;;;;;;;10.27;9.07;;;13.60;99.90;;;;;;4944394;29;20283;-75
2023/06/26 03:02:59;;;;;;;12.27;9.63;;;13.60;99.90;;;;;;4935458;29;20212;-74
2023/06/26 03:05:27;;;;;;;10.97;9.87;;;13.50;99.90;;;;;;4935559;29;20315;-75
2023/06/26 03:07:57;;;;;;;12.37;10.17;;;13.50;99.90;;;;;;4935193;29;20208;-77
2023/06/26 03:10:25;;;;;;;11.57;10.00;;;13.50;99.90;;;;;;4936191;29;20243;-75
2023/06/26 03:12:54;;;;;;;10.30;9.23;;;13.50;99.90;;;;;;4935330;29;20220;-76
2023/06/26 03:15:22;;;;;;;11.77;9.60;;;13.50;99.90;;;;;;4935174;29;20215;-74
2023/06/26 03:17:50;;;;;;;11.13;9.70;;;13.50;99.90;;;;;;4953432;29;20626;-75
2023/06/26 03:20:18;;;;;;;11.17;9.97;;;13.50;99.90;;;;;;4950400;29;20572;-74
2023/06/26 03:22:46;;;;;;;14.43;9.77;;;13.50;99.90;;;;;;4944529;28;20262;-76
2023/06/26 03:25:16;;;;;;;11.20;9.53;;;13.50;99.90;;;;;;4935264;29;20239;-74
2023/06/26 03:27:44;;;;;;;11.77;9.30;;;13.40;99.90;;;;;;4935588;29;20223;-75
2023/06/26 03:30:13;;;;;;;10.97;9.33;;;13.40;99.90;;;;;;4935763;29;20283;-73
2023/06/26 03:32:41;;;;;;;11.70;9.80;;;13.40;99.90;;;;;;4935282;29;20204;-74
2023/06/26 03:35:09;;;;;;;12.77;9.30;;;13.40;99.90;;;;;;4935703;29;20208;-75
2023/06/26 03:37:38;;;;;;;11.77;9.10;;;13.40;99.90;;;;;;4935406;29;20259;-76
2023/06/26 03:40:07;;;;;;;10.20;9.13;;;13.40;99.90;;;;;;4935222;29;20767;-77
2023/06/26 03:42:36;;;;;;;9.70;8.70;;;13.50;99.90;;;;;;4943385;29;20662;-75
2023/06/26 03:45:05;;;;;;;12.87;9.00;;;13.50;99.90;;;;;;4954540;28;20796;-75
2023/06/26 03:47:33;;;;;;;10.20;8.93;;;13.40;99.90;;;;;;4954166;28;20670;-74
2023/06/26 03:50:02;;;;;;;11.23;9.03;;;13.50;99.90;;;;;;4936309;29;20228;-76
2023/06/26 03:52:30;;;;;;;13.37;9.40;;;13.50;99.90;;;;;;4957228;29;20212;-75
2023/06/26 03:54:59;;;;;;;10.37;8.90;;;13.50;99.90;;;;;;4974553;28;20219;-76
2023/06/26 03:57:27;;;;;;;10.07;9.03;;;13.50;99.90;;;;;;4977856;28;20210;-75
2023/06/26 03:59:56;;;;;;;10.30;8.57;;;13.50;99.90;;;;;;4965807;28;20216;-76
2023/06/26 04:02:25;;;;;;;11.77;9.17;;;13.50;99.90;;;;;;4958125;29;20219;-75
2023/06/26 04:04:53;;;;;;;9.73;8.10;;;13.50;99.90;;;;;;4958603;29;20242;-74
2023/06/26 04:07:21;;;;;;;10.03;8.23;;;13.50;99.90;;;;;;4958393;28;20266;-74
2023/06/26 04:09:49;;;;;;;10.13;8.90;;;13.60;99.90;;;;;;4943006;29;20232;-75
2023/06/26 04:12:18;;;;;;;10.87;8.83;;;13.60;99.90;;;;;;4944081;28;20223;-73
2023/06/26 04:14:46;;;;;;;12.63;9.23;;;13.60;99.90;;;;;;4940162;29;20212;-75
2023/06/26 04:17:15;;;;;;;10.50;8.90;;;13.70;99.90;;;;;;4954255;29;20267;-75
2023/06/26 04:19:44;;;;;;;10.47;9.07;;;13.70;99.90;;;;;;4952907;28;20373;-74
2023/06/26 04:22:12;;;;;;;10.07;8.70;;;13.70;99.90;;;;;;4954759;29;20261;-75
2023/06/26 04:24:41;;;;;;;10.10;8.70;;;13.80;99.90;;;;;;4964731;29;20220;-74
2023/06/26 04:27:09;;;;;;;13.57;9.90;;;13.90;99.90;;;;;;4965033;28;20218;-75
2023/06/26 04:29:37;;;;;;;9.97;8.97;;;13.90;99.90;;;;;;4960759;28;20211;-76
2023/06/26 04:32:06;;;;;;;10.67;8.63;;;14.00;99.90;;;;;;4947785;29;21293;-75
2023/06/26 04:34:40;;;;;;;10.53;8.97;;;14.00;99.90;;;;;;4955139;28;20683;-75
2023/06/26 04:37:09;;;;;;;10.23;8.77;;;14.10;99.90;;;;;;4948108;29;20217;-75
2023/06/26 04:39:38;;;;;;;10.67;8.53;;;14.30;99.90;;;;;;4950049;28;20208;-75
2023/06/26 04:42:07;;;;;;;10.67;8.17;;;14.40;99.90;;;;;;4949795;29;20298;-75
2023/06/26 04:44:37;;;;;;;10.10;9.00;;;14.50;99.90;;;;;;4948382;29;20216;-76
2023/06/26 04:47:06;;;;;;;10.70;8.50;;;14.60;99.90;;;;;;4948703;28;20216;-75
2023/06/26 04:49:35;;;;;;;9.13;7.57;;;14.70;99.90;;;;;;4945049;29;20209;-75
2023/06/26 04:52:06;;;;;;;9.17;8.20;;;14.90;99.90;;;;;;4948580;28;20310;-74
2023/06/26 04:54:38;;;;;;;9.63;7.93;;;15.00;99.90;;;;;;4947341;29;20271;-76
2023/06/26 04:57:08;;;;;;;10.63;7.93;;;15.10;99.90;;;;;;4944874;29;20567;-74
2023/06/26 04:59:37;;;;;;;10.00;7.90;;;15.30;99.90;;;;;;4947557;29;20208;-74
2023/06/26 05:02:07;;;;;;;9.47;7.60;;;15.40;99.90;;;;;;4947993;29;20227;-76
2023/06/26 05:04:37;;;;;;;8.83;7.93;;;15.60;99.90;;;;;;4950169;29;20222;-74
2023/06/26 05:07:06;;;;;;;10.40;7.50;;;15.70;99.90;;;;;;4947601;29;20207;-75
2023/06/26 05:09:34;;;;;;;8.50;7.60;;;15.80;99.90;;;;;;4946707;29;20235;-75
2023/06/26 05:12:04;;;;;;;7.80;7.00;;;15.90;99.90;;;;;;4947706;28;20286;-75
2023/06/26 05:14:32;;;;;;;12.07;7.90;;;16.10;99.90;;;;;;4945588;29;20275;-73
2023/06/26 05:17:00;;;;;;;10.07;7.37;;;16.20;99.90;;;;;;4945376;28;20650;-75
2023/06/26 05:19:28;;;;;;;9.40;7.10;;;16.30;99.90;;;;;;4944772;29;20690;-78
2023/06/26 05:22:01;;;;;;;10.60;7.60;;;16.40;99.90;;;;;;4945791;28;20204;-79
2023/06/26 05:24:33;;;;;;;8.10;7.30;;;16.50;99.90;;;;;;4945102;29;20259;-77
2023/06/26 05:27:02;;;;;;;9.13;7.20;;;16.60;99.90;;;;;;4945234;28;20298;-77
2023/06/26 05:29:32;;;;;;;8.17;7.13;;;16.70;99.90;;;;;;4944228;29;20207;-78
2023/06/26 05:32:05;;;;;;;8.87;7.20;;;16.80;99.90;;;;;;4946392;29;20736;-73
2023/06/26 05:34:35;;;;;;;8.53;7.13;;;16.90;99.90;;;;;;4945732;29;20215;-76
2023/06/26 05:37:06;;;;;;;8.93;7.10;;;17.00;99.90;;;;;;4947427;29;20299;-77
2023/06/26 05:39:34;;;;;;;9.10;7.17;;;17.10;99.90;;;;;;4945438;29;20211;-76
2023/06/26 05:42:04;;;;;;;11.40;7.60;;;17.30;99.90;;;;;;4944249;28;20216;-76
2023/06/26 05:44:33;;;;;;;11.63;6.93;;;17.50;99.90;;;;;;4945215;29;20212;-78
2023/06/26 05:47:01;;;;;;;9.90;6.97;;;17.60;99.90;;;;;;4945411;28;20686;-76
2023/06/26 05:49:30;;;;;;;10.77;6.90;;;17.80;99.90;;;;;;4946651;29;20218;-75
2023/06/26 05:51:59;;;;;;;9.30;6.67;;;18.10;99.90;;;;;;4947684;28;20262;-76
2023/06/26 05:54:30;;;;;;;8.60;6.80;;;18.70;99.90;;;;;;4946236;29;20226;-76
2023/06/26 05:57:00;;;;;;;10.30;6.40;;;19.50;99.90;;;;;;4945777;29;20193;-79
2023/06/26 05:59:31;;;;;;;6.87;6.10;;;20.80;99.90;;;;;;4946202;28;20207;-75
2023/06/26 06:01:59;;;;;;;7.53;6.27;;;22.50;97.40;;;;;;4942794;29;20286;-77
2023/06/26 06:04:28;;;;;;;8.13;7.00;;;23.60;91.80;;;;;;4945997;29;20207;-77
2023/06/26 06:06:56;;;;;;;8.17;6.20;;;24.90;86.80;;;;;;4944706;29;20232;-77
2023/06/26 06:09:26;;;;;;;7.00;6.10;;;26.00;77.20;;;;;;4944198;28;20215;-77
2023/06/26 06:11:56;;;;;;;6.70;6.00;;;26.40;73.40;;;;;;4944667;29;20452;-76
2023/06/26 06:14:24;;;;;;;7.75;6.18;;;27.10;65.60;;;;;;4945404;28;20219;-78
2023/06/26 06:16:53;;;;;;;7.00;6.30;;;27.30;61.90;;;;;;4944476;29;20251;-78
2023/06/26 06:19:21;;;;;;;7.28;6.18;;;27.60;62.90;;;;;;4944570;28;20219;-78
2023/06/26 06:21:50;;;;;;;6.75;5.95;;;28.00;57.70;;;;;;4944132;28;20238;-78
2023/06/26 06:24:18;;;;;;;7.85;6.68;;;28.00;57.10;;;;;;4944554;28;20294;-78
2023/06/26 06:26:47;;;;;;;8.93;6.20;;;28.30;56.50;;;;;;4945409;29;20306;-77
2023/06/26 06:29:18;;;;;;;7.63;6.20;;;28.90;56.00;;;;;;4945548;29;20215;-77
2023/06/26 06:31:47;;;;;;;7.43;6.72;;;29.50;53.10;;;;;;4945486;28;20322;-77
2023/06/26 06:34:16;;;;;;;8.05;6.65;;;28.90;52.10;;;;;;4945074;28;20223;-77
2023/06/26 06:36:44;;;;;;;7.20;6.50;;;28.80;53.70;;;;;;4953380;29;20219;-79
2023/06/26 06:39:12;;;;;;;7.10;6.05;;;29.60;52.60;;;;;;4954526;28;20270;-78
2023/06/26 06:41:40;;;;;;;7.18;6.43;;;30.20;51.50;;;;;;4954700;28;20262;-78
2023/06/26 06:44:08;;;;;;;7.22;6.40;;;30.00;50.50;;;;;;4952891;28;20246;-79
2023/06/26 06:46:37;;;;;;;7.05;6.35;;;30.10;49.40;;;;;;4934886;29;20259;-79
2023/06/26 06:49:06;;;;;;;8.60;6.40;;;30.10;49.00;;;;;;4943504;28;20274;-79
2023/06/26 06:51:34;;;;;;;8.57;6.45;;;30.20;49.30;;;;;;4943822;29;20655;-78
2023/06/26 06:54:02;;;;;;;8.10;6.75;;;30.50;48.20;;;;;;4944793;28;20224;-78
2023/06/26 06:56:31;;;;;;;7.90;6.93;;;30.60;48.40;;;;;;4945943;29;20282;-76
2023/06/26 06:59:02;;;;;;;7.50;6.32;;;31.10;47.70;;;;;;4942850;29;20210;-79
2023/06/26 07:01:34;;;;;;;7.47;6.78;;;31.60;45.10;;;;;;4944035;29;20203;-79
2023/06/26 07:04:04;;;;;;;7.75;6.95;;;31.90;42.30;;;;;;4944862;28;20204;-79
2023/06/26 07:06:32;;;;;;;6.80;6.20;;;31.60;42.40;;;;;;4946055;28;20203;-78
2023/06/26 07:09:00;;;;;;;8.45;7.05;;;32.20;44.10;;;;;;4944820;28;20227;-78
2023/06/26 07:11:29;;;;;;;8.85;6.90;;;32.50;40.50;;;;;;4941987;29;20265;-77
2023/06/26 07:13:57;;;;;;;7.97;6.57;;;32.70;40.40;;;;;;4947234;29;20226;-79
2023/06/26 07:16:25;;;;;;;7.05;6.40;;;33.20;39.00;;;;;;4938109;29;20275;-79
2023/06/26 07:18:54;;;;;;;7.53;6.60;;;33.30;39.50;;;;;;4938842;29;20210;-78
2023/06/26 07:21:24;;;;;;;9.50;6.60;;;33.50;38.70;;;;;;4938116;29;20212;-78
2023/06/26 07:23:53;;;;;;;8.57;6.75;;;34.30;37.70;;;;;;4938178;28;20244;-78
2023/06/26 07:26:22;;;;;;;9.25;7.15;;;33.80;36.50;;;;;;4940967;29;20563;-78
2023/06/26 07:29:11;;;;;;;8.88;6.75;;;33.70;37.80;;;;;;4942494;29;20195;-79
2023/06/26 07:31:40;;;;;;;8.45;7.20;;;33.90;36.50;;;;;;4947364;29;20239;-80
2023/06/26 07:34:08;;;;;;;8.63;7.50;;;34.30;36.00;;;;;;4941766;29;20282;-79
2023/06/26 07:36:38;;;;;;;8.50;6.95;;;33.50;35.50;;;;;;4952689;29;20219;-78
2023/06/26 07:39:06;;;;;;;8.55;7.47;;;34.00;36.00;;;;;;4952537;29;20211;-79
2023/06/26 07:41:39;;;;;;;8.13;7.00;;;34.10;34.50;;;;;;4942110;29;20208;-78
2023/06/26 07:44:07;;;;;;;9.73;7.20;;;34.40;34.90;;;;;;4941114;29;20219;-79
2023/06/26 07:46:35;;;;;;;7.63;6.65;;;34.90;34.50;;;;;;4951938;29;20255;-80
2023/06/26 07:49:03;;;;;;;13.35;7.07;;;35.30;33.90;;;;;;4947676;28;20287;-79
2023/06/26 07:51:31;;;;;;;8.18;7.38;;;35.50;33.60;;;;;;4941522;29;20222;-78
2023/06/26 07:54:01;;;;;;;7.95;7.25;;;35.30;32.00;;;;;;4940758;29;20216;-78
2023/06/26 07:56:29;;;;;;;7.13;6.40;;;34.80;33.10;;;;;;4941346;29;20255;-78
2023/06/26 07:59:00;;;;;;;8.02;7.13;;;34.60;33.30;;;;;;4943324;28;20200;-79
2023/06/26 08:01:28;;;;;;;7.72;6.75;;;35.10;31.40;;;;;;4948919;28;20208;-79
2023/06/26 08:03:56;;;;;;;7.32;6.63;;;35.10;32.40;;;;;;4945989;28;20208;-80
2023/06/26 08:06:24;;;;;;;7.38;6.68;;;35.00;31.40;;;;;;4946749;28;20298;-80
2023/06/26 08:08:52;;;;;;;8.10;6.88;;;35.70;31.10;;;;;;4946351;28;20240;-78
2023/06/26 08:11:22;;;;;;;7.72;6.93;;;35.50;29.70;;;;;;4948439;29;20241;-79
2023/06/26 08:13:50;;;;;;;8.80;7.05;;;35.20;30.00;;;;;;4946580;29;20271;-79
2023/06/26 08:16:18;;;;;;;7.93;6.93;;;35.20;30.70;;;;;;4946080;29;20263;-79
2023/06/26 08:18:47;;;;;;;9.20;6.80;;;35.10;31.00;;;;;;4947418;29;20212;-80
2023/06/26 08:21:15;;;;;;;7.95;6.90;;;35.20;31.60;;;;;;4947007;28;20200;-79
2023/06/26 08:23:43;;;;;;;7.47;6.80;;;35.20;30.10;;;;;;4946181;29;20259;-79
2023/06/26 08:26:11;;;;;;;9.68;7.15;;;35.40;31.70;;;;;;4946476;29;20243;-83
2023/06/26 08:28:41;;;;;;;8.23;6.95;;;35.60;31.10;;;;;;4945232;29;20291;-79
2023/06/26 08:31:09;;;;;;;7.47;6.65;;;35.40;30.50;;;;;;4946477;28;20218;-79
2023/06/26 08:33:37;;;;;;;8.63;6.70;;;36.50;29.50;;;;;;4945769;29;20215;-80
2023/06/26 08:36:05;;;;;;;6.97;6.32;;;36.00;29.30;;;;;;4948187;28;20303;-81
2023/06/26 08:38:33;;;;;;;10.25;6.85;;;36.30;29.60;;;;;;4945600;28;20220;-82
2023/06/26 08:41:01;;;;;;;8.18;6.50;;;36.90;27.30;;;;;;4943116;29;20208;-80
2023/06/26 08:43:30;;;;;;;7.68;6.30;;;36.60;28.20;;;;;;4941522;29;20287;-79
2023/06/26 08:46:00;;;;;;;7.30;6.38;;;36.50;28.40;;;;;;4942106;28;20634;-81
2023/06/26 08:48:32;;;;;;;7.93;6.28;;;37.10;28.20;;;;;;4944297;28;20290;-79
2023/06/26 08:51:04;;;;;;;7.75;6.50;;;36.50;28.00;;;;;;4940558;29;20205;-82
2023/06/26 08:53:41;;;;;;;8.75;6.18;;;35.80;28.40;;;;;;4941680;29;20215;-81
2023/06/26 08:56:10;;;;;;;7.85;6.13;;;36.20;28.40;;;;;;4944038;29;20216;-79
2023/06/26 08:58:39;;;;;;;6.70;6.00;;;35.90;28.10;;;;;;4946514;28;20311;-78
2023/06/26 09:01:13;;;;;;;7.78;6.40;;;36.40;27.90;;;;;;4944785;28;20699;-79
2023/06/26 09:03:42;;;;;;;7.57;6.32;;;37.00;25.80;;;;;;4948667;29;20207;-80
2023/06/26 09:06:11;;;;;;;7.80;6.28;;;36.80;25.70;;;;;;4946655;28;20212;-80
2023/06/26 09:08:39;;;;;;;7.28;6.30;;;36.70;25.80;;;;;;4948787;28;20275;-80
2023/06/26 09:11:07;;;;;;;10.57;6.35;;;36.70;26.10;;;;;;4946156;29;20204;-79
2023/06/26 09:13:35;;;;;;;7.00;6.28;;;36.40;26.80;;;;;;4957799;28;20640;-79
2023/06/26 09:16:08;;;;;;;8.48;6.40;;;36.50;26.00;;;;;;4975037;28;20616;-80
2023/06/26 09:18:38;;;;;;;6.85;6.15;;;36.80;27.00;;;;;;4974621;28;20632;-79
2023/06/26 09:21:08;;;;;;;6.80;6.20;;;37.00;26.70;;;;;;4960264;28;20659;-78
2023/06/26 09:23:37;;;;;;;6.32;5.72;;;37.60;25.20;;;;;;4936211;29;20552;-80
2023/06/26 09:26:06;;;;;;;6.60;6.00;;;37.20;27.50;;;;;;4937371;29;20578;-79
2023/06/26 09:28:36;;;;;;;7.18;5.72;;;37.30;26.40;;;;;;4936508;29;20604;-79
2023/06/26 09:31:05;;;;;;;7.20;5.80;;;37.50;27.50;;;;;;4936916;29;20224;-81
2023/06/26 09:33:38;;;;;;;6.85;5.60;;;37.10;26.30;;;;;;4936948;29;20742;-80
2023/06/26 09:36:09;;;;;;;6.95;6.20;;;37.50;26.70;;;;;;4936861;29;20246;-80
2023/06/26 09:38:39;;;;;;;7.13;6.43;;;37.70;25.90;;;;;;4936178;29;20320;-79
2023/06/26 09:41:07;;;;;;;6.43;5.82;;;36.70;26.70;;;;;;4934948;29;20208;-80
2023/06/26 09:43:35;;;;;;;7.88;6.40;;;37.00;28.00;;;;;;4936035;29;20297;-78
2023/06/26 09:46:08;;;;;;;6.40;5.60;;;37.30;25.70;;;;;;4961411;28;20230;-79
2023/06/26 09:48:37;;;;;;;6.70;6.03;;;37.80;25.60;;;;;;4938434;28;20235;-80
2023/06/26 09:51:05;;;;;;;7.70;5.88;;;37.70;26.90;;;;;;4935849;29;20682;-81
2023/06/26 09:53:43;;;;;;;6.60;5.90;;;36.40;27.10;;;;;;4935573;29;20589;-80
2023/06/26 09:56:17;;;;;;;6.65;5.95;;;37.30;27.80;;;;;;4936137;29;20220;-79
2023/06/26 09:58:45;;;;;;;8.15;5.43;;;37.60;25.00;;;;;;4935927;29;20279;-78
2023/06/26 10:01:14;;;;;;;5.93;5.40;;;37.30;26.40;;;;;;4935966;29;20232;-79
2023/06/26 10:03:44;;;;;;;7.13;5.40;;;37.80;25.70;;;;;;4935183;29;20215;-80
2023/06/26 10:06:13;;;;;;;5.85;5.00;;;38.10;23.80;;;;;;4935595;29;20219;-82
2023/06/26 10:08:42;;;;;;;5.90;5.35;;;38.40;24.20;;;;;;4935713;29;20236;-80
2023/06/26 10:11:17;;;;;;;5.82;5.32;;;38.30;24.90;;;;;;4935768;29;20671;-82
2023/06/26 10:13:48;;;;;;;7.43;4.90;;;39.00;24.20;;;;;;4935636;29;20219;-79
2023/06/26 10:16:22;;;;;;;6.32;4.88;;;39.50;23.20;;;;;;4945272;29;20211;-80
2023/06/26 10:18:55;;;;;;;6.20;4.80;;;39.10;23.20;;;;;;4954718;29;20694;-80
2023/06/26 10:21:24;;;;;;;5.60;5.05;;;38.40;23.40;;;;;;4954838;29;20206;-79
2023/06/26 10:23:53;;;;;;;5.22;4.72;;;38.00;23.30;;;;;;4954414;29;20211;-79
2023/06/26 10:26:23;;;;;;;4.63;4.20;;;38.60;24.30;;;;;;4941811;29;20224;-80
2023/06/26 10:28:53;;;;;;;4.90;4.50;;;38.80;21.80;;;;;;4935647;29;20465;-80
2023/06/26 10:31:23;;;;;;;8.15;4.47;;;39.00;22.80;;;;;;4935644;29;20268;-80
2023/06/26 10:33:53;;;;;;;5.43;4.68;;;38.60;22.00;;;;;;4934651;29;20212;-80
2023/06/26 10:36:29;;;;;;;5.10;4.57;;;38.30;22.20;;;;;;4936231;29;20224;-79
2023/06/26 10:38:58;;;;;;;4.90;4.50;;;38.60;22.10;;;;;;4935220;29;20235;-79
2023/06/26 10:41:27;;;;;;;4.80;4.30;;;38.60;21.30;;;;;;4935009;29;20668;-79
2023/06/26 10:44:08;;;;;;;5.28;4.55;;;38.90;22.00;;;;;;4956903;28;20246;-79
2023/06/26 10:46:52;;;;;;;5.72;4.50;;;38.40;22.20;;;;;;4947109;28;20208;-79
2023/06/26 10:49:25;;;;;;;5.50;4.60;;;38.90;21.60;;;;;;4938798;29;20219;-77
2023/06/26 10:51:55;;;;;;;5.28;4.68;;;37.80;22.60;;;;;;4950552;29;20673;-81
2023/06/26 10:54:24;;;;;;;7.22;4.93;;;38.00;23.00;;;;;;4951630;28;20689;-82
2023/06/26 10:56:56;;;;;;;5.32;4.50;;;38.10;21.10;;;;;;4951172;29;20206;-80
2023/06/26 10:59:26;;;;;;;5.30;4.65;;;37.60;21.10;;;;;;4949385;28;20559;-77
2023/06/26 11:01:57;;;;;;;5.13;4.63;;;37.80;22.00;;;;;;4935699;29;20208;-78
2023/06/26 11:04:40;;;;;;;5.00;4.60;;;37.70;23.50;;;;;;4936056;29;20287;-78
2023/06/26 11:07:16;;;;;;;4.88;4.47;;;38.30;23.70;;;;;;4935819;29;20698;-79
2023/06/26 11:10:03;;;;;;;5.60;4.80;;;38.10;23.10;;;;;;4936041;29;20223;-80
2023/06/26 11:12:41;;;;;;;7.15;4.78;;;37.20;23.60;;;;;;4937978;29;20204;-79
2023/06/26 11:15:11;;;;;;;16.95;5.20;;;37.40;24.00;;;;;;4949998;29;20342;-80
2023/06/26 11:17:39;;;;;;;23.98;6.55;;;37.00;24.30;;;;;;4935611;29;20251;-79
2023/06/26 11:20:10;;;;;;;5.22;4.28;;;37.10;23.70;;;;;;4935441;29;20700;-78
2023/06/26 11:22:40;;;;;;;5.47;4.68;;;36.60;24.40;;;;;;4936243;29;20208;-78
2023/06/26 11:25:10;;;;;;;7.00;4.72;;;36.10;24.90;;;;;;4936267;29;20215;-81
2023/06/26 11:27:39;;;;;;;8.50;4.72;;;36.50;25.30;;;;;;4949694;28;20199;-79
2023/06/26 11:30:09;;;;;;;5.53;4.82;;;36.10;25.90;;;;;;4947371;28;20208;-79
2023/06/26 11:32:38;;;;;;;7.47;4.68;;;36.30;26.40;;;;;;4944940;29;20214;-78
2023/06/26 11:35:09;;;;;;;10.48;4.57;;;36.20;24.50;;;;;;4941446;29;20271;-77
2023/06/26 11:37:39;;;;;;;6.03;4.68;;;35.80;25.10;;;;;;4942073;29;20212;-80
2023/06/26 11:40:21;;;;;;;22.00;6.07;;;36.00;25.80;;;;;;4948048;29;20215;-78
2023/06/26 11:42:49;;;;;;;7.63;5.05;;;35.50;25.00;;;;;;4949807;28;20268;-76
2023/06/26 11:45:17;;;;;;;9.15;5.18;;;35.60;25.60;;;;;;4948854;29;20231;-76
2023/06/26 11:47:46;;;;;;;9.00;4.68;;;35.40;26.80;;;;;;4948650;29;20555;-80
2023/06/26 11:50:17;;;;;;;5.15;4.65;;;35.50;26.00;;;;;;4950172;28;20204;-75
2023/06/26 11:52:53;;;;;;;5.65;4.55;;;35.20;26.70;;;;;;4943358;28;20295;-78
2023/06/26 11:55:22;;;;;;;5.18;4.22;;;35.20;26.00;;;;;;4941242;28;20271;-80
2023/06/26 11:57:50;;;;;;;5.65;5.05;;;35.20;26.70;;;;;;4942072;29;20204;-76
2023/06/26 12:00:19;;;;;;;5.88;4.40;;;35.40;25.40;;;;;;4948423;28;20304;-74
2023/06/26 12:02:47;;;;;;;7.85;4.28;;;35.10;25.80;;;;;;4944687;28;20570;-75
2023/06/26 12:05:17;;;;;;;5.20;4.47;;;34.80;26.60;;;;;;4941697;29;20630;-78
2023/06/26 12:07:49;;;;;;;5.25;4.47;;;34.80;26.40;;;;;;4944325;28;20215;-74
2023/06/26 12:10:18;;;;;;;5.72;4.53;;;34.90;26.60;;;;;;4946628;29;20196;-76
2023/06/26 12:12:47;;;;;;;4.75;4.25;;;34.50;25.10;;;;;;4946160;28;20226;-75
2023/06/26 12:15:16;;;;;;;5.32;4.20;;;34.60;27.50;;;;;;4946669;29;20684;-77
2023/06/26 12:17:45;;;;;;;6.57;4.47;;;34.80;27.50;;;;;;4948705;29;20202;-77
2023/06/26 12:20:21;;;;;;;5.10;4.60;;;34.60;27.00;;;;;;4947145;28;20223;-80
2023/06/26 12:22:50;;;;;;;6.22;4.55;;;34.70;26.90;;;;;;4945428;29;20248;-76
2023/06/26 12:25:25;;;;;;;6.88;4.78;;;34.60;26.40;;;;;;4946813;29;20263;-75
2023/06/26 12:27:53;;;;;;;5.90;4.63;;;34.50;26.80;;;;;;4947090;29;20266;-77
2023/06/26 12:30:21;;;;;;;5.85;4.45;;;34.50;26.40;;;;;;4944316;28;20659;-78
2023/06/26 12:32:49;;;;;;;5.90;5.05;;;34.30;27.40;;;;;;4947849;29;20208;-76
2023/06/26 12:35:18;;;;;;;5.10;4.60;;;34.20;26.20;;;;;;4948989;29;20216;-77
2023/06/26 12:37:47;;;;;;;5.00;4.53;;;33.90;27.50;;;;;;4945468;29;20435;-76
2023/06/26 12:40:21;;;;;;;5.78;4.57;;;33.70;28.10;;;;;;4947786;29;20259;-73
2023/06/26 12:42:50;;;;;;;6.53;4.75;;;33.70;28.60;;;;;;4947415;29;20325;-77
2023/06/26 12:45:20;;;;;;;5.22;4.72;;;34.00;28.20;;;;;;4950977;29;20274;-76
2023/06/26 12:47:52;;;;;;;6.40;4.68;;;33.50;28.00;;;;;;4953537;29;20219;-79
2023/06/26 12:50:21;;;;;;;6.97;4.88;;;33.70;29.10;;;;;;4954980;28;20214;-75
2023/06/26 12:52:49;;;;;;;6.88;5.10;;;33.70;28.70;;;;;;4943669;28;20658;-75
2023/06/26 12:55:17;;;;;;;8.43;4.82;;;34.00;28.70;;;;;;4948175;28;20212;-74